createdAt,value
2022-08-30T00:00:41.695Z,45.58
2022-08-30T00:01:41.686Z,44.51
2022-08-30T00:02:41.761Z,48.74
2022-08-30T00:03:41.757Z,46.82
2022-08-30T00:04:41.661Z,45.02
2022-08-30T00:05:41.718Z,44.90
2022-08-30T00:06:41.653Z,44.78
2022-08-30T00:07:41.606Z,45.09
2022-08-30T00:08:41.628Z,45.02
2022-08-30T00:09:41.603Z,47.81
2022-08-30T00:10:41.623Z,49.00
2022-08-30T00:11:41.621Z,45.51
2022-08-30T00:12:41.619Z,45.47
2022-08-30T00:13:41.578Z,44.66
2022-08-30T00:14:41.569Z,46.43
2022-08-30T00:15:41.633Z,44.98
2022-08-30T00:16:41.637Z,45.02
2022-08-30T00:17:41.556Z,45.62
2022-08-30T00:18:41.547Z,45.45
2022-08-30T00:19:41.547Z,45.80
2022-08-30T00:20:41.525Z,44.97
2022-08-30T00:21:42.560Z,48.73
2022-08-30T00:22:41.542Z,49.76
2022-08-30T00:23:41.521Z,46.10
2022-08-30T00:24:41.555Z,45.62
2022-08-30T00:25:41.494Z,45.54
2022-08-30T00:26:41.493Z,46.54
2022-08-30T00:27:41.502Z,45.18
2022-08-30T00:28:41.476Z,45.46
2022-08-30T00:29:41.498Z,45.50
2022-08-30T00:30:41.616Z,45.62
2022-08-30T00:31:41.463Z,45.22
2022-08-30T00:32:41.458Z,45.34
2022-08-30T00:33:41.447Z,45.82
2022-08-30T00:34:41.458Z,45.75
2022-08-30T00:35:41.430Z,45.36
2022-08-30T00:36:41.468Z,46.93
2022-08-30T00:37:41.434Z,46.05
2022-08-30T00:38:41.398Z,46.75
2022-08-30T00:39:41.422Z,45.76
2022-08-30T00:40:41.526Z,45.14
2022-08-30T00:41:41.430Z,45.37
2022-08-30T00:42:41.379Z,45.83
2022-08-30T00:43:41.376Z,47.03
2022-08-30T00:44:41.360Z,46.78
2022-08-30T00:45:41.365Z,45.06
2022-08-30T00:46:41.434Z,44.63
2022-08-30T00:47:41.352Z,44.72
2022-08-30T00:48:41.348Z,44.64
2022-08-30T00:49:41.344Z,44.99
2022-08-30T00:50:41.364Z,46.08
2022-08-30T00:51:41.318Z,44.92
2022-08-30T00:52:41.339Z,45.09
2022-08-30T00:53:41.297Z,45.29
2022-08-30T00:54:41.288Z,45.70
2022-08-30T00:55:42.084Z,46.50
2022-08-30T00:56:41.354Z,46.31
2022-08-30T00:57:41.305Z,45.70
2022-08-30T00:58:41.273Z,45.58
2022-08-30T00:59:41.263Z,45.36
2022-08-30T01:00:41.256Z,45.32
2022-08-30T01:01:41.274Z,45.86
2022-08-30T01:02:41.266Z,45.91
2022-08-30T01:03:41.241Z,46.00
2022-08-30T01:04:41.239Z,46.16
2022-08-30T01:05:41.216Z,46.39
2022-08-30T01:06:41.234Z,45.82
2022-08-30T01:07:41.254Z,46.52
2022-08-30T01:08:41.193Z,45.76
2022-08-30T01:09:41.212Z,45.58
2022-08-30T01:10:41.174Z,45.68
2022-08-30T01:11:41.196Z,45.42
2022-08-30T01:12:41.181Z,45.60
2022-08-30T01:13:41.156Z,45.28
2022-08-30T01:14:41.180Z,45.27
2022-08-30T01:15:41.194Z,45.34
2022-08-30T01:16:41.171Z,45.98
2022-08-30T01:17:41.129Z,47.54
2022-08-30T01:18:41.181Z,45.55
2022-08-30T01:19:41.107Z,47.25
2022-08-30T01:20:41.130Z,45.72
2022-08-30T01:21:41.219Z,45.75
2022-08-30T01:22:41.126Z,45.77
2022-08-30T01:23:41.081Z,45.58
2022-08-30T01:24:41.091Z,45.58
2022-08-30T01:25:41.113Z,45.96
2022-08-30T01:26:41.063Z,45.76
2022-08-30T01:27:41.040Z,47.50
2022-08-30T01:28:41.044Z,45.91
2022-08-30T01:29:41.050Z,48.34
2022-08-30T01:30:41.098Z,48.13
2022-08-30T01:31:41.022Z,48.43
2022-08-30T01:32:41.035Z,48.95
2022-08-30T01:33:41.004Z,45.92
2022-08-30T01:34:41.006Z,45.78
2022-08-30T01:35:41.015Z,45.32
2022-08-30T01:36:44.562Z,45.22
2022-08-30T01:37:41.034Z,45.07
2022-08-30T01:38:40.989Z,45.02
2022-08-30T01:39:40.982Z,45.05
2022-08-30T01:40:41.022Z,44.84
2022-08-30T01:41:41.009Z,44.75
2022-08-30T01:42:40.934Z,44.72
2022-08-30T01:43:40.932Z,44.74
2022-08-30T01:44:40.923Z,44.61
2022-08-30T01:45:40.956Z,44.80
2022-08-30T01:46:40.942Z,44.97
2022-08-30T01:47:40.913Z,45.81
2022-08-30T01:48:40.893Z,47.67
2022-08-30T01:49:40.889Z,45.74
2022-08-30T01:50:40.924Z,47.32
2022-08-30T01:51:40.878Z,46.62
2022-08-30T01:52:40.855Z,46.38
2022-08-30T01:53:40.887Z,46.18
2022-08-30T01:54:40.856Z,46.39
2022-08-30T01:55:40.869Z,46.63
2022-08-30T01:56:40.847Z,46.32
2022-08-30T01:57:40.856Z,46.04
2022-08-30T01:58:40.831Z,46.17
2022-08-30T01:59:40.827Z,47.35
2022-08-30T02:00:40.795Z,46.10
2022-08-30T02:01:40.890Z,47.36
2022-08-30T02:02:40.810Z,46.50
2022-08-30T02:03:40.795Z,45.60
2022-08-30T02:04:40.777Z,45.67
2022-08-30T02:05:40.765Z,45.70
2022-08-30T02:06:40.774Z,45.57
2022-08-30T02:07:40.780Z,45.50
2022-08-30T02:08:40.765Z,45.30
2022-08-30T02:09:40.732Z,45.15
2022-08-30T02:10:40.775Z,45.38
2022-08-30T02:11:40.712Z,45.77
2022-08-30T02:12:40.734Z,47.32
2022-08-30T02:13:40.725Z,47.53
2022-08-30T02:14:40.725Z,46.43
2022-08-30T02:15:41.340Z,46.96
2022-08-30T02:16:40.734Z,46.91
2022-08-30T02:17:40.703Z,47.35
2022-08-30T02:18:40.679Z,46.98
2022-08-30T02:19:40.667Z,46.24
2022-08-30T02:20:40.703Z,46.95
2022-08-30T02:21:40.683Z,47.22
2022-08-30T02:22:40.662Z,47.02
2022-08-30T02:23:41.650Z,47.02
2022-08-30T02:24:40.639Z,47.97
2022-08-30T02:25:40.626Z,46.05
2022-08-30T02:26:40.682Z,47.73
2022-08-30T02:27:40.622Z,46.75
2022-08-30T02:28:49.651Z,47.00
2022-08-30T02:29:41.613Z,47.09
2022-08-30T02:30:40.664Z,46.81
2022-08-30T02:31:40.629Z,47.00
2022-08-30T02:32:40.609Z,47.17
2022-08-30T02:33:40.607Z,46.28
2022-08-30T02:34:40.551Z,48.87
2022-08-30T02:35:40.533Z,47.15
2022-08-30T02:36:40.586Z,47.16
2022-08-30T02:37:40.534Z,46.66
2022-08-30T02:38:40.532Z,48.14
2022-08-30T02:39:40.526Z,47.57
2022-08-30T02:40:40.598Z,47.88
2022-08-30T02:41:40.498Z,46.87
2022-08-30T02:42:40.500Z,47.37
2022-08-30T02:43:40.476Z,48.84
2022-08-30T02:44:40.477Z,50.36
2022-08-30T02:45:40.574Z,59.01
2022-08-30T02:46:40.455Z,58.00
2022-08-30T02:47:44.910Z,57.84
2022-08-30T02:48:42.444Z,58.05
2022-08-30T02:49:40.439Z,57.88
2022-08-30T02:50:40.446Z,57.64
2022-08-30T02:51:40.415Z,55.37
2022-08-30T02:52:40.412Z,47.82
2022-08-30T02:53:40.417Z,47.47
2022-08-30T02:54:40.403Z,48.31
2022-08-30T02:55:40.423Z,48.14
2022-08-30T02:56:40.393Z,50.18
2022-08-30T02:57:40.416Z,47.48
2022-08-30T02:58:40.375Z,47.40
2022-08-30T02:59:40.358Z,47.94
2022-08-30T03:00:41.401Z,48.75
2022-08-30T03:01:40.420Z,47.81
2022-08-30T03:02:40.369Z,49.48
2022-08-30T03:03:40.365Z,48.04
2022-08-30T03:04:40.322Z,51.19
2022-08-30T03:05:40.324Z,50.55
2022-08-30T03:06:41.348Z,49.52
2022-08-30T03:07:40.332Z,49.57
2022-08-30T03:08:40.323Z,50.86
2022-08-30T03:09:40.307Z,49.81
2022-08-30T03:10:40.298Z,49.90
2022-08-30T03:11:40.351Z,48.12
2022-08-30T03:12:40.297Z,49.99
2022-08-30T03:13:40.284Z,50.74
2022-08-30T03:14:40.282Z,51.74
2022-08-30T03:15:40.253Z,50.10
2022-08-30T03:16:40.281Z,51.26
2022-08-30T03:17:40.250Z,50.55
2022-08-30T03:18:40.260Z,50.18
2022-08-30T03:19:40.233Z,50.21
2022-08-30T03:20:40.220Z,48.43
2022-08-30T03:21:40.231Z,50.39
2022-08-30T03:22:40.200Z,50.19
2022-08-30T03:23:40.209Z,51.22
2022-08-30T03:24:40.203Z,52.31
2022-08-30T03:25:40.218Z,50.75
2022-08-30T03:26:43.095Z,53.72
2022-08-30T03:27:42.176Z,52.04
2022-08-30T03:28:40.195Z,52.40
2022-08-30T03:29:40.139Z,51.81
2022-08-30T03:30:40.244Z,49.59
2022-08-30T03:31:52.504Z,49.69
2022-08-30T03:32:41.119Z,48.57
2022-08-30T03:33:40.099Z,49.44
2022-08-30T03:34:40.115Z,50.87
2022-08-30T03:35:40.138Z,49.80
2022-08-30T03:36:40.102Z,48.92
2022-08-30T03:37:40.106Z,50.33
2022-08-30T03:38:40.080Z,52.43
2022-08-30T03:39:40.090Z,49.81
2022-08-30T03:40:40.184Z,52.00
2022-08-30T03:41:40.056Z,52.15
2022-08-30T03:42:40.025Z,53.85
2022-08-30T03:43:40.036Z,49.91
2022-08-30T03:44:40.034Z,52.18
2022-08-30T03:45:40.068Z,53.54
2022-08-30T03:46:40.053Z,52.45
2022-08-30T03:47:41.918Z,52.35
2022-08-30T03:48:40.004Z,50.33
2022-08-30T03:49:39.986Z,50.99
2022-08-30T03:50:39.977Z,49.27
2022-08-30T03:51:39.998Z,51.65
2022-08-30T03:52:39.978Z,50.46
2022-08-30T03:53:39.978Z,51.35
2022-08-30T03:54:39.943Z,57.78
2022-08-30T03:55:39.952Z,53.87
2022-08-30T03:56:39.947Z,53.77
2022-08-30T03:57:39.944Z,51.45
2022-08-30T03:58:39.956Z,51.53
2022-08-30T03:59:39.902Z,50.63
2022-08-30T04:00:39.921Z,52.28
2022-08-30T04:01:39.899Z,51.80
2022-08-30T04:02:40.016Z,51.53
2022-08-30T04:03:39.917Z,54.18
2022-08-30T04:04:39.886Z,51.43
2022-08-30T04:05:39.872Z,51.29
2022-08-30T04:06:39.847Z,53.69
2022-08-30T04:07:39.903Z,53.30
2022-08-30T04:08:39.858Z,53.97
2022-08-30T04:09:39.835Z,54.76
2022-08-30T04:10:39.825Z,54.73
2022-08-30T04:11:39.819Z,53.60
2022-08-30T04:12:39.825Z,52.51
2022-08-30T04:13:39.823Z,51.99
2022-08-30T04:14:39.783Z,54.28
2022-08-30T04:15:39.797Z,52.68
2022-08-30T04:16:39.844Z,54.41
2022-08-30T04:17:39.775Z,55.02
2022-08-30T04:18:39.790Z,53.34
2022-08-30T04:19:39.795Z,52.34
2022-08-30T04:20:39.748Z,50.78
2022-08-30T04:21:43.207Z,54.38
2022-08-30T04:22:39.706Z,54.17
2022-08-30T04:23:40.730Z,52.62
2022-08-30T04:24:39.739Z,54.27
2022-08-30T04:25:39.734Z,54.10
2022-08-30T04:26:39.693Z,55.27
2022-08-30T04:27:39.759Z,55.12
2022-08-30T04:28:39.698Z,53.43
2022-08-30T04:29:39.735Z,54.30
2022-08-30T04:30:39.723Z,53.54
2022-08-30T04:31:39.703Z,54.97
2022-08-30T04:32:39.664Z,56.12
2022-08-30T04:33:39.649Z,54.89
2022-08-30T04:34:39.647Z,55.65
2022-08-30T04:35:39.653Z,55.35
2022-08-30T04:36:39.739Z,52.34
2022-08-30T04:37:39.659Z,55.76
2022-08-30T04:38:39.610Z,57.38
2022-08-30T04:39:39.607Z,53.24
2022-08-30T04:40:39.647Z,53.08
2022-08-30T04:41:39.608Z,53.71
2022-08-30T04:42:39.577Z,52.94
2022-08-30T04:43:39.551Z,54.43
2022-08-30T04:44:40.575Z,52.75
2022-08-30T04:45:39.599Z,54.09
2022-08-30T04:46:44.486Z,55.31
2022-08-30T04:47:41.554Z,56.46
2022-08-30T04:48:39.530Z,55.06
2022-08-30T04:49:39.520Z,55.89
2022-08-30T04:50:39.545Z,53.89
2022-08-30T04:51:39.549Z,53.59
2022-08-30T04:52:39.511Z,51.47
2022-08-30T04:53:39.498Z,56.57
2022-08-30T04:54:39.522Z,53.55
2022-08-30T04:55:39.485Z,52.59
2022-08-30T04:56:39.530Z,53.88
2022-08-30T04:57:39.476Z,54.94
2022-08-30T04:58:39.444Z,54.07
2022-08-30T04:59:39.451Z,53.66
2022-08-30T05:00:39.516Z,55.30
2022-08-30T05:01:45.458Z,56.04
2022-08-30T05:02:40.481Z,56.96
2022-08-30T05:03:39.439Z,56.56
2022-08-30T05:04:39.440Z,57.49
2022-08-30T05:05:39.392Z,55.27
2022-08-30T05:06:39.419Z,53.02
2022-08-30T05:07:39.500Z,52.72
2022-08-30T05:08:39.348Z,52.66
2022-08-30T05:09:40.368Z,55.83
2022-08-30T05:10:39.366Z,53.25
2022-08-30T05:11:39.383Z,52.73
2022-08-30T05:12:39.347Z,51.19
2022-08-30T05:13:39.324Z,52.99
2022-08-30T05:14:39.330Z,52.07
2022-08-30T05:15:39.380Z,55.26
2022-08-30T05:16:39.387Z,54.03
2022-08-30T05:17:39.293Z,50.60
2022-08-30T05:18:39.305Z,54.85
2022-08-30T05:19:39.286Z,54.06
2022-08-30T05:20:39.268Z,54.89
2022-08-30T05:21:39.309Z,56.42
2022-08-30T05:22:39.281Z,52.96
2022-08-30T05:23:39.248Z,51.34
2022-08-30T05:24:39.344Z,52.34
2022-08-30T05:25:39.250Z,51.42
2022-08-30T05:26:40.367Z,52.44
2022-08-30T05:27:39.205Z,51.65
2022-08-30T05:28:39.235Z,49.59
2022-08-30T05:29:39.213Z,50.17
2022-08-30T05:30:39.207Z,53.97
2022-08-30T05:31:39.334Z,50.57
2022-08-30T05:32:39.176Z,52.48
2022-08-30T05:33:39.197Z,51.63
2022-08-30T05:34:39.176Z,54.20
2022-08-30T05:35:40.114Z,53.66
2022-08-30T05:36:39.178Z,50.99
2022-08-30T05:37:39.158Z,51.59
2022-08-30T05:38:39.181Z,51.46
2022-08-30T05:39:50.981Z,53.03
2022-08-30T05:40:40.199Z,53.82
2022-08-30T05:41:39.237Z,57.00
2022-08-30T05:42:39.117Z,52.49
2022-08-30T05:43:39.142Z,50.87
2022-08-30T05:44:39.114Z,50.12
2022-08-30T05:45:40.103Z,53.75
2022-08-30T05:46:39.087Z,54.29
2022-08-30T05:47:39.327Z,49.97
2022-08-30T05:48:39.088Z,51.72
2022-08-30T05:49:39.085Z,53.60
2022-08-30T05:50:40.102Z,52.14
2022-08-30T05:51:42.937Z,51.66
2022-08-30T05:52:39.033Z,52.62
2022-08-30T05:53:39.029Z,52.38
2022-08-30T05:54:39.068Z,54.86
2022-08-30T05:55:39.037Z,54.39
2022-08-30T05:56:39.001Z,51.30
2022-08-30T05:57:39.010Z,52.82
2022-08-30T05:58:38.994Z,51.36
2022-08-30T05:59:38.983Z,50.65
2022-08-30T06:00:39.035Z,50.63
2022-08-30T06:01:39.031Z,50.47
2022-08-30T06:02:39.097Z,51.21
2022-08-30T06:03:39.029Z,50.98
2022-08-30T06:04:38.991Z,52.34
2022-08-30T06:05:39.025Z,49.80
2022-08-30T06:06:38.966Z,49.27
2022-08-30T06:07:38.917Z,49.55
2022-08-30T06:08:38.924Z,46.18
2022-08-30T06:09:38.935Z,49.31
2022-08-30T06:10:38.961Z,47.63
2022-08-30T06:11:38.904Z,50.11
2022-08-30T06:12:38.890Z,51.00
2022-08-30T06:13:38.892Z,49.46
2022-08-30T06:14:38.907Z,48.74
2022-08-30T06:15:38.885Z,52.60
2022-08-30T06:16:38.908Z,50.10
2022-08-30T06:17:38.866Z,49.08
2022-08-30T06:18:38.910Z,51.97
2022-08-30T06:19:38.859Z,53.71
2022-08-30T06:20:38.838Z,50.39
2022-08-30T06:21:38.916Z,51.52
2022-08-30T06:22:38.840Z,48.48
2022-08-30T06:23:38.814Z,47.13
2022-08-30T06:24:56.322Z,50.23
2022-08-30T06:25:41.978Z,50.66
2022-08-30T06:26:38.821Z,49.13
2022-08-30T06:27:38.814Z,50.17
2022-08-30T06:28:38.835Z,51.95
2022-08-30T06:29:38.868Z,54.59
2022-08-30T06:30:38.765Z,52.63
2022-08-30T06:31:38.824Z,50.02
2022-08-30T06:32:38.911Z,48.52
2022-08-30T06:33:38.753Z,49.42
2022-08-30T06:34:38.750Z,50.97
2022-08-30T06:35:56.713Z,52.03
2022-08-30T06:36:39.788Z,52.88
2022-08-30T06:37:38.716Z,48.43
2022-08-30T06:38:38.762Z,50.44
2022-08-30T06:39:38.720Z,51.43
2022-08-30T06:40:38.857Z,50.38
2022-08-30T06:41:38.751Z,48.82
2022-08-30T06:42:38.718Z,49.71
2022-08-30T06:43:38.723Z,48.32
2022-08-30T06:44:38.703Z,51.73
2022-08-30T06:45:38.663Z,51.38
2022-08-30T06:46:38.723Z,51.44
2022-08-30T06:47:38.659Z,51.41
2022-08-30T06:48:38.682Z,46.90
2022-08-30T06:49:38.690Z,51.47
2022-08-30T06:50:38.644Z,52.62
2022-08-30T06:51:39.723Z,49.35
2022-08-30T06:52:38.627Z,49.71
2022-08-30T06:53:38.663Z,46.32
2022-08-30T06:54:38.674Z,47.17
2022-08-30T06:55:38.667Z,49.02
2022-08-30T06:56:40.196Z,54.40
2022-08-30T06:57:39.642Z,48.20
2022-08-30T06:58:38.593Z,48.50
2022-08-30T06:59:38.615Z,48.67
2022-08-30T07:00:38.601Z,50.76
2022-08-30T07:01:38.631Z,47.02
2022-08-30T07:02:38.798Z,49.66
2022-08-30T07:03:38.561Z,46.69
2022-08-30T07:04:38.889Z,52.04
2022-08-30T07:05:38.576Z,48.88
2022-08-30T07:06:38.597Z,48.39
2022-08-30T07:07:38.567Z,48.27
2022-08-30T07:08:38.610Z,47.26
2022-08-30T07:09:38.575Z,48.80
2022-08-30T07:10:38.520Z,47.95
2022-08-30T07:11:38.614Z,49.52
2022-08-30T07:12:38.531Z,48.81
2022-08-30T07:13:38.522Z,46.62
2022-08-30T07:14:38.538Z,49.83
2022-08-30T07:15:38.601Z,45.55
2022-08-30T07:16:38.535Z,45.89
2022-08-30T07:17:38.563Z,48.91
2022-08-30T07:18:38.511Z,45.92
2022-08-30T07:19:38.465Z,51.35
2022-08-30T07:20:40.307Z,45.18
2022-08-30T07:21:38.451Z,49.36
2022-08-30T07:22:38.469Z,47.17
2022-08-30T07:23:38.436Z,49.62
2022-08-30T07:24:38.490Z,50.85
2022-08-30T07:25:38.479Z,50.72
2022-08-30T07:26:38.411Z,47.86
2022-08-30T07:27:38.534Z,48.38
2022-08-30T07:28:38.428Z,50.47
2022-08-30T07:29:38.410Z,49.99
2022-08-30T07:30:38.410Z,46.84
2022-08-30T07:31:38.446Z,46.82
2022-08-30T07:32:38.448Z,44.20
2022-08-30T07:33:38.551Z,49.22
2022-08-30T07:34:38.373Z,46.08
2022-08-30T07:35:38.370Z,50.88
2022-08-30T07:36:38.530Z,51.23
2022-08-30T07:37:38.507Z,50.75
2022-08-30T07:38:38.353Z,47.40
2022-08-30T07:39:41.650Z,50.15
2022-08-30T07:40:40.356Z,48.94
2022-08-30T07:41:38.389Z,48.92
2022-08-30T07:42:38.341Z,48.92
2022-08-30T07:43:38.362Z,49.97
2022-08-30T07:44:38.326Z,46.34
2022-08-30T07:45:38.383Z,47.88
2022-08-30T07:46:38.410Z,51.77
2022-08-30T07:47:38.337Z,51.01
2022-08-30T07:48:38.343Z,46.01
2022-08-30T07:49:38.294Z,49.26
2022-08-30T07:50:38.351Z,51.08
2022-08-30T07:51:38.301Z,47.29
2022-08-30T07:53:39.302Z,46.54
2022-08-30T07:54:38.283Z,49.99
2022-08-30T07:55:38.269Z,48.37
2022-08-30T07:56:38.245Z,49.99
2022-08-30T07:57:38.224Z,49.88
2022-08-30T07:58:39.253Z,50.21
2022-08-30T07:59:38.223Z,50.94
2022-08-30T08:00:38.236Z,49.08
2022-08-30T08:01:38.310Z,49.23
2022-08-30T08:02:38.283Z,52.06
2022-08-30T08:03:38.251Z,48.10
2022-08-30T08:04:38.196Z,52.16
2022-08-30T08:05:38.167Z,46.23
2022-08-30T08:06:38.250Z,52.74
2022-08-30T08:07:38.267Z,62.86
2022-08-30T08:08:38.169Z,49.27
2022-08-30T08:09:38.165Z,50.97
2022-08-30T08:10:38.160Z,44.11
2022-08-30T08:11:38.157Z,45.13
2022-08-30T08:12:38.182Z,51.26
2022-08-30T08:13:50.645Z,51.64
2022-08-30T08:14:39.144Z,49.65
2022-08-30T08:15:38.189Z,49.54
2022-08-30T08:16:39.110Z,45.72
2022-08-30T08:17:38.115Z,43.99
2022-08-30T08:18:38.143Z,44.82
2022-08-30T08:19:38.142Z,47.66
2022-08-30T08:20:38.116Z,54.15
2022-08-30T08:21:38.087Z,51.72
2022-08-30T08:22:40.149Z,50.90
2022-08-30T08:23:39.121Z,46.85
2022-08-30T08:24:38.083Z,44.48
2022-08-30T08:25:38.070Z,46.56
2022-08-30T08:26:38.074Z,50.04
2022-08-30T08:27:38.096Z,50.31
2022-08-30T08:28:38.092Z,50.00
2022-08-30T08:29:38.066Z,47.56
2022-08-30T08:30:38.044Z,46.51
2022-08-30T08:31:38.125Z,48.84
2022-08-30T08:32:38.036Z,49.49
2022-08-30T08:33:38.063Z,45.88
2022-08-30T08:34:38.016Z,46.09
2022-08-30T08:35:38.042Z,42.98
2022-08-30T08:36:38.002Z,51.15
2022-08-30T08:37:38.006Z,48.04
2022-08-30T08:38:38.001Z,51.36
2022-08-30T08:39:38.036Z,48.00
2022-08-30T08:40:38.096Z,50.00
2022-08-30T08:41:37.976Z,49.03
2022-08-30T08:42:37.992Z,47.57
2022-08-30T08:43:38.022Z,49.07
2022-08-30T08:44:38.040Z,46.12
2022-08-30T08:45:37.983Z,49.93
2022-08-30T08:46:38.017Z,48.40
2022-08-30T08:47:37.990Z,42.42
2022-08-30T08:48:58.519Z,45.24
2022-08-30T08:49:39.933Z,47.09
2022-08-30T08:50:37.907Z,47.39
2022-08-30T08:51:37.913Z,47.39
2022-08-30T08:52:37.920Z,45.76
2022-08-30T08:53:45.976Z,50.87
2022-08-30T08:54:39.986Z,45.08
2022-08-30T08:55:37.904Z,49.11
2022-08-30T08:56:37.888Z,49.06
2022-08-30T08:57:37.889Z,47.60
2022-08-30T08:58:37.953Z,44.16
2022-08-30T08:59:37.912Z,47.54
2022-08-30T09:00:37.883Z,48.35
2022-08-30T09:01:37.986Z,54.76
2022-08-30T09:02:37.875Z,56.23
2022-08-30T09:03:37.876Z,55.62
2022-08-30T09:04:37.960Z,52.90
2022-08-30T09:05:37.847Z,48.67
2022-08-30T09:06:37.821Z,54.25
2022-08-30T09:07:37.837Z,47.97
2022-08-30T09:08:37.790Z,47.03
2022-08-30T09:09:37.799Z,45.11
2022-08-30T09:10:49.890Z,50.73
2022-08-30T09:11:40.404Z,48.31
2022-08-30T09:12:37.792Z,44.71
2022-08-30T09:13:37.789Z,47.27
2022-08-30T09:14:38.935Z,45.29
2022-08-30T09:15:37.804Z,46.03
2022-08-30T09:16:37.768Z,48.42
2022-08-30T09:17:37.781Z,47.62
2022-08-30T09:18:37.791Z,45.43
2022-08-30T09:19:37.729Z,46.76
2022-08-30T09:20:37.778Z,44.44
2022-08-30T09:21:37.716Z,48.77
2022-08-30T09:22:37.777Z,45.66
2022-08-30T09:23:37.740Z,47.44
2022-08-30T09:24:37.720Z,44.36
2022-08-30T09:25:41.274Z,48.89
2022-08-30T09:26:38.720Z,45.83
2022-08-30T09:27:37.703Z,46.67
2022-08-30T09:28:37.762Z,48.61
2022-08-30T09:29:37.689Z,50.74
2022-08-30T09:30:37.719Z,45.45
2022-08-30T09:31:37.657Z,51.35
2022-08-30T09:32:37.673Z,50.90
2022-08-30T09:33:37.679Z,49.05
2022-08-30T09:34:37.678Z,45.80
2022-08-30T09:35:37.655Z,48.74
2022-08-30T09:36:37.633Z,47.28
2022-08-30T09:37:37.615Z,44.72
2022-08-30T09:38:37.646Z,44.22
2022-08-30T09:39:37.627Z,46.59
2022-08-30T09:40:37.653Z,43.27
2022-08-30T09:41:40.520Z,47.56
2022-08-30T09:42:37.651Z,47.62
2022-08-30T09:43:37.573Z,47.50
2022-08-30T09:44:37.591Z,43.78
2022-08-30T09:45:37.576Z,46.21
2022-08-30T09:46:37.686Z,44.60
2022-08-30T09:47:37.684Z,48.18
2022-08-30T09:48:37.551Z,49.11
2022-08-30T09:49:37.532Z,50.80
2022-08-30T09:50:37.598Z,48.10
2022-08-30T09:51:37.519Z,55.62
2022-08-30T09:52:37.544Z,45.78
2022-08-30T09:53:37.519Z,46.61
2022-08-30T09:54:37.560Z,44.51
2022-08-30T09:55:37.566Z,46.34
2022-08-30T09:56:37.502Z,46.76
2022-08-30T09:57:37.536Z,45.25
2022-08-30T09:58:37.519Z,48.27
2022-08-30T09:59:37.464Z,45.56
2022-08-30T10:00:37.532Z,48.14
2022-08-30T10:01:37.537Z,46.43
2022-08-30T10:02:37.467Z,46.55
2022-08-30T10:03:40.524Z,47.12
2022-08-30T10:04:37.615Z,46.36
2022-08-30T10:05:37.495Z,48.34
2022-08-30T10:06:37.420Z,46.17
2022-08-30T10:07:37.433Z,48.41
2022-08-30T10:08:37.595Z,47.05
2022-08-30T10:09:37.411Z,49.72
2022-08-30T10:10:39.414Z,48.50
2022-08-30T10:11:37.404Z,46.51
2022-08-30T10:12:37.410Z,46.80
2022-08-30T10:13:37.449Z,49.47
2022-08-30T10:14:37.403Z,47.83
2022-08-30T10:15:37.365Z,46.36
2022-08-30T10:16:37.445Z,49.73
2022-08-30T10:17:37.354Z,50.92
2022-08-30T10:18:37.349Z,51.04
2022-08-30T10:19:37.341Z,50.05
2022-08-30T10:20:37.422Z,50.49
2022-08-30T10:21:37.313Z,45.80
2022-08-30T10:22:37.337Z,46.52
2022-08-30T10:23:37.401Z,47.47
2022-08-30T10:24:37.350Z,49.44
2022-08-30T10:25:37.294Z,48.64
2022-08-30T10:26:37.280Z,46.07
2022-08-30T10:27:37.309Z,48.89
2022-08-30T10:28:37.289Z,45.99
2022-08-30T10:29:41.911Z,47.85
2022-08-30T10:30:39.276Z,47.79
2022-08-30T10:31:37.305Z,46.60
2022-08-30T10:32:37.258Z,49.80
2022-08-30T10:33:37.266Z,47.40
2022-08-30T10:34:37.272Z,46.34
2022-08-30T10:35:38.921Z,46.45
2022-08-30T10:36:38.229Z,44.98
2022-08-30T10:37:37.255Z,45.99
2022-08-30T10:38:37.222Z,47.92
2022-08-30T10:39:37.198Z,48.33
2022-08-30T10:40:37.272Z,44.19
2022-08-30T10:41:37.217Z,48.05
2022-08-30T10:42:40.139Z,48.87
2022-08-30T10:43:38.188Z,48.30
2022-08-30T10:44:37.195Z,47.90
2022-08-30T10:45:37.218Z,47.93
2022-08-30T10:46:37.180Z,47.62
2022-08-30T10:47:38.515Z,48.74
2022-08-30T10:48:37.219Z,48.90
2022-08-30T10:49:37.132Z,48.68
2022-08-30T10:50:41.165Z,55.14
2022-08-30T10:51:39.156Z,45.98
2022-08-30T10:52:37.133Z,46.88
2022-08-30T10:53:37.125Z,49.54
2022-08-30T10:54:37.122Z,47.18
2022-08-30T10:55:37.114Z,46.78
2022-08-30T10:56:37.166Z,46.31
2022-08-30T10:57:37.161Z,45.77
2022-08-30T10:58:37.113Z,49.09
2022-08-30T10:59:37.091Z,51.30
2022-08-30T11:00:37.072Z,45.37
2022-08-30T11:01:37.123Z,45.76
2022-08-30T11:02:38.098Z,49.28
2022-08-30T11:03:37.111Z,47.49
2022-08-30T11:04:37.159Z,43.12
2022-08-30T11:05:37.037Z,47.41
2022-08-30T11:06:37.035Z,47.03
2022-08-30T11:07:37.046Z,46.97
2022-08-30T11:08:37.057Z,47.87
2022-08-30T11:09:37.027Z,48.76
2022-08-30T11:10:37.034Z,45.67
2022-08-30T11:11:37.025Z,45.68
2022-08-30T11:12:37.072Z,47.56
2022-08-30T11:13:37.040Z,46.71
2022-08-30T11:14:36.973Z,49.75
2022-08-30T11:15:36.974Z,47.23
2022-08-30T11:16:38.077Z,48.85
2022-08-30T11:17:37.160Z,49.07
2022-08-30T11:18:36.963Z,50.64
2022-08-30T11:19:36.988Z,48.84
2022-08-30T11:20:36.959Z,48.88
2022-08-30T11:21:36.967Z,47.36
2022-08-30T11:22:39.316Z,51.67
2022-08-30T11:23:37.933Z,46.67
2022-08-30T11:24:36.926Z,47.77
2022-08-30T11:25:38.722Z,47.21
2022-08-30T11:26:37.944Z,46.26
2022-08-30T11:27:36.919Z,46.89
2022-08-30T11:28:36.904Z,49.64
2022-08-30T11:29:36.893Z,47.49
2022-08-30T11:30:36.963Z,46.45
2022-08-30T11:31:36.903Z,45.50
2022-08-30T11:32:36.904Z,45.99
2022-08-30T11:33:36.875Z,46.59
2022-08-30T11:34:37.062Z,47.97
2022-08-30T11:35:36.858Z,45.22
2022-08-30T11:36:37.269Z,45.78
2022-08-30T11:37:37.091Z,47.57
2022-08-30T11:38:36.918Z,47.24
2022-08-30T11:39:36.876Z,48.32
2022-08-30T11:40:36.838Z,46.89
2022-08-30T11:41:40.962Z,46.65
2022-08-30T11:42:38.861Z,45.57
2022-08-30T11:43:37.443Z,47.77
2022-08-30T11:44:36.829Z,46.74
2022-08-30T11:45:36.885Z,47.18
2022-08-30T11:46:36.841Z,49.95
2022-08-30T11:47:36.836Z,48.63
2022-08-30T11:48:36.817Z,46.78
2022-08-30T11:49:36.774Z,45.97
2022-08-30T11:50:36.792Z,43.76
2022-08-30T11:51:36.781Z,45.80
2022-08-30T11:52:36.788Z,49.73
2022-08-30T11:53:36.750Z,48.00
2022-08-30T11:54:36.781Z,46.96
2022-08-30T11:55:36.749Z,46.71
2022-08-30T11:56:36.769Z,47.35
2022-08-30T11:57:36.764Z,47.55
2022-08-30T11:58:36.797Z,45.18
2022-08-30T11:59:36.762Z,45.80
2022-08-30T12:00:36.741Z,44.21
2022-08-30T12:01:50.995Z,43.86
2022-08-30T12:02:38.826Z,49.27
2022-08-30T12:03:36.873Z,47.76
2022-08-30T12:04:36.697Z,45.92
2022-08-30T12:05:36.693Z,43.26
2022-08-30T12:06:36.675Z,45.29
2022-08-30T12:07:36.698Z,48.26
2022-08-30T12:08:37.698Z,46.25
2022-08-30T12:09:36.655Z,51.18
2022-08-30T12:10:36.656Z,45.82
2022-08-30T12:11:36.645Z,43.71
2022-08-30T12:12:37.350Z,44.18
2022-08-30T12:13:36.677Z,45.65
2022-08-30T12:14:36.659Z,41.05
2022-08-30T12:15:36.647Z,43.19
2022-08-30T12:16:36.668Z,39.58
2022-08-30T12:17:36.648Z,47.52
2022-08-30T12:18:36.631Z,45.04
2022-08-30T12:19:36.606Z,45.13
2022-08-30T12:20:36.685Z,45.76
2022-08-30T12:21:43.863Z,48.21
2022-08-30T12:22:37.622Z,48.75
2022-08-30T12:23:36.595Z,50.19
2022-08-30T12:24:37.589Z,52.57
2022-08-30T12:25:36.625Z,49.62
2022-08-30T12:26:36.553Z,44.49
2022-08-30T12:27:36.550Z,55.69
2022-08-30T12:28:36.546Z,55.21
2022-08-30T12:29:36.583Z,55.38
2022-08-30T12:30:36.619Z,54.78
2022-08-30T12:31:36.589Z,55.39
2022-08-30T12:32:36.557Z,55.16
2022-08-30T12:33:40.350Z,46.26
2022-08-30T12:34:38.519Z,46.58
2022-08-30T12:35:36.525Z,48.40
2022-08-30T12:36:36.495Z,47.01
2022-08-30T12:37:36.516Z,45.44
2022-08-30T12:38:36.528Z,48.65
2022-08-30T12:39:36.491Z,46.39
2022-08-30T12:40:36.540Z,47.30
2022-08-30T12:41:36.590Z,46.92
2022-08-30T12:42:37.492Z,47.84
2022-08-30T12:43:41.738Z,47.06
2022-08-30T12:44:36.460Z,46.41
2022-08-30T12:45:36.500Z,51.28
2022-08-30T12:46:36.442Z,46.50
2022-08-30T12:47:36.503Z,44.99
2022-08-30T12:48:36.447Z,48.03
2022-08-30T12:49:36.511Z,45.92
2022-08-30T12:50:36.420Z,44.83
2022-08-30T12:51:36.417Z,47.11
2022-08-30T12:52:36.439Z,48.45
2022-08-30T12:53:36.397Z,55.09